TimeMST,TemperatureF,Dew PointF,Humidity,Sea Level PressureIn,VisibilityMPH,Wind Direction,Wind SpeedMPH,Gust SpeedMPH,PrecipitationIn,Events,Conditions,WindDirDegrees,DateUTC
4:45 AM,30,20,56,30.33,1,Calm,Calm,,,,,,2013-02-16 11:45:00
5:40 AM,23.0,10.4,59,30.47,10.0,South,8.1,-,N/A,,Scattered Clouds,190,2013-02-16 12:40:00
6:44 AM,26.6,10.4,51,30.45,10.0,South,9.2,-,N/A,,Partly Cloudy,180,2013-02-16 13:44:00
7:40 AM,32.0,14.0,48,30.50,10.0,Calm,Calm,-,N/A,,Partly Cloudy,0,2013-02-16 14:40:00
7:45 AM,39,24,43,30.41,6,WNW,4.5,,,,Scattered Clouds,290,2013-02-16 14:45:00
8:41 AM,41.0,15.8,36,30.47,10.0,SSW,3.5,-,N/A,,Scattered Clouds,200,2013-02-16 15:41:00
9:40 AM,46.4,19.4,34,30.47,10.0,Calm,Calm,-,N/A,,Scattered Clouds,0,2013-02-16 16:40:00
10:40 AM,51.8,17.6,26,30.42,10.0,Calm,Calm,-,N/A,,Scattered Clouds,0,2013-02-16 17:40:00
10:45 AM,55,21,15,30.37,6,East,2.2,,,,Clear,90,2013-02-16 17:45:00
11:40 AM,55.4,12.2,18,30.41,10.0,ESE,9.2,-,N/A,,Scattered Clouds,110,2013-02-16 18:40:00
12:40 PM,57.2,12.2,17,30.36,10.0,NE,3.5,-,N/A,,Scattered Clouds,40,2013-02-16 19:40:00
1:40 PM,57.2,10.4,16,29.61,10.0,East,4.6,-,N/A,,Scattered Clouds,80,2013-02-16 20:40:00
1:55 PM,60,16,9,30.22,6,SSE,6.7,,,,Clear,160,2013-02-16 20:55:00
2:40 PM,60.8,12.2,15,30.28,10.0,ENE,9.2,-,N/A,,Scattered Clouds,60,2013-02-16 21:40:00
4:40 PM,59.0,10.4,15,30.08,10.0,East,6.9,-,N/A,,Scattered Clouds,80,2013-02-16 23:40:00
4:45 PM,60,14,8,30.09,6,,6.7,,,,Clear,,2013-02-16 23:45:00
5:40 PM,55.4,10.4,17,30.24,10.0,East,12.7,-,N/A,,Scattered Clouds,80,2013-02-17 00:40:00
6:40 PM,48.2,8.6,20,30.25,10.0,ESE,8.1,-,N/A,,Partly Cloudy,110,2013-02-17 01:40:00
7:40 PM,42.8,5.0,21,30.25,10.0,SSE,8.1,-,N/A,,Partly Cloudy,160,2013-02-17 02:40:00
7:55 PM,45,15,17,30.06,1,Calm,Calm,,,,,,2013-02-17 02:55:00
8:40 PM,42.8,10.4,27,30.25,10.0,SSW,5.8,-,N/A,,Partly Cloudy,200,2013-02-17 03:40:00